West Hollywood, Florida
Current Conditions -  °F | °C
As of 5:53 PM on Thursday 20 Nov 2014 (Local Time) from KHWO Reporting Station
Overcast Overcast  
Wind Chill: 73°   Ceiling: 6000
Heat Index: 73°   Visibility: 10mi
Dew Point: 61°   Wind: 12mph
Humidity: 66%   Direction: 50°NE
Pressure: 30.13"   Gusts: NA
Location:  25.9895°N, 80.2144°W
Report Text: KHWO 202253Z 05010KT 10SM FEW041 OVC060 23/16 A3013 RMK AO2 SLP201 T02280161
Loading
Personal Weather Stations






























Interactive Weather Map New forecast layout! Learn more

10-Day Weather Forecast

Advertisements
Track Severe Weather on mobile